Time;durP1;ratioP1;P1;durP2;ratioP2;P2;SDS_P1;SDS_P2;PMS_P1;PMS_P2;Temp;Humidity;BMP_temperature;BMP_pressure;BME280_temperature;BME280_humidity;BME280_pressure;Samples;Min_cycle;Max_cycle;Signal;HPM_P1;HPM_P2
2023/07/04 00:01:14;;;;;;;14.80;2.78;;;12.30;99.90;;;;;;5001947;28;20605;-72
2023/07/04 00:03:42;;;;;;;15.57;2.63;;;12.30;99.90;;;;;;4986445;28;20053;-66
2023/07/04 00:06:12;;;;;;;13.63;2.22;;;12.30;99.90;;;;;;4986147;28;20481;-71
2023/07/04 00:08:37;;;;;;;11.95;2.35;;;12.30;99.90;;;;;;4986475;28;20413;-69
2023/07/04 00:11:04;;;;;;;12.70;2.17;;;12.20;99.90;;;;;;4985924;28;20038;-68
2023/07/04 00:13:32;;;;;;;15.90;2.70;;;12.20;99.90;;;;;;4969761;28;20054;-71
2023/07/04 00:15:58;;;;;;;9.63;2.40;;;12.20;99.90;;;;;;4986011;28;20058;-68
2023/07/04 00:18:27;;;;;;;12.60;2.38;;;12.10;99.90;;;;;;4985949;28;20046;-72
2023/07/04 00:20:58;;;;;;;9.10;2.53;;;12.20;99.90;;;;;;4985946;28;20086;-68
2023/07/04 00:23:29;;;;;;;15.40;2.60;;;12.10;99.90;;;;;;4986356;28;20049;-72
2023/07/04 00:25:55;;;;;;;12.57;2.83;;;12.10;99.90;;;;;;4985752;28;20050;-69
2023/07/04 00:28:23;;;;;;;12.45;2.20;;;12.10;99.90;;;;;;4986164;28;20046;-73
2023/07/04 00:30:53;;;;;;;11.60;2.00;;;12.10;99.90;;;;;;4986629;28;20068;-71
2023/07/04 00:33:20;;;;;;;19.98;2.63;;;12.10;99.90;;;;;;4985466;28;20397;-71
2023/07/04 00:35:46;;;;;;;13.50;2.50;;;12.00;99.90;;;;;;4986111;28;20038;-68
2023/07/04 00:38:12;;;;;;;13.75;2.78;;;12.00;99.90;;;;;;4985870;28;20042;-70
2023/07/04 00:40:38;;;;;;;13.48;2.42;;;12.00;99.90;;;;;;4985628;28;20078;-72
2023/07/04 00:43:04;;;;;;;10.82;2.30;;;12.00;99.90;;;;;;4982265;28;20226;-72
2023/07/04 00:45:37;;;;;;;14.00;2.78;;;12.00;99.90;;;;;;4966409;28;20177;-70
2023/07/04 00:48:05;;;;;;;14.10;3.30;;;11.90;99.90;;;;;;4963185;28;20049;-69
2023/07/04 00:50:38;;;;;;;16.52;2.55;;;11.90;99.90;;;;;;4985534;28;20141;-70
2023/07/04 00:53:07;;;;;;;10.80;2.25;;;11.90;99.90;;;;;;4985497;28;20081;-69
2023/07/04 00:55:37;;;;;;;14.13;2.95;;;11.90;99.90;;;;;;4985516;28;20401;-70
2023/07/04 00:58:06;;;;;;;12.02;2.72;;;11.80;99.90;;;;;;4985753;28;20045;-70
2023/07/04 01:00:32;;;;;;;12.10;2.55;;;11.80;99.90;;;;;;4975254;28;20124;-68
2023/07/04 01:03:03;;;;;;;15.27;3.00;;;11.80;99.90;;;;;;4984580;28;20045;-69
2023/07/04 01:05:33;;;;;;;10.55;2.38;;;11.80;99.90;;;;;;4985201;28;20140;-70
2023/07/04 01:08:02;;;;;;;12.32;2.67;;;11.80;99.90;;;;;;4985518;28;20057;-69
2023/07/04 01:10:42;;;;;;;14.60;2.35;;;11.80;99.90;;;;;;4984512;28;20042;-67
2023/07/04 01:13:33;;;;;;;8.60;2.20;;;11.80;99.90;;;;;;4965976;28;20047;-68
2023/07/04 01:16:01;;;;;;;9.35;2.08;;;11.80;99.90;;;;;;4966212;28;20043;-67
2023/07/04 01:18:27;;;;;;;15.45;2.58;;;11.80;99.90;;;;;;4982337;28;20527;-67
2023/07/04 01:20:53;;;;;;;9.63;2.20;;;11.80;99.90;;;;;;4984423;28;20050;-70
2023/07/04 01:23:49;;;;;;;13.95;2.58;;;11.80;99.90;;;;;;4985395;28;20113;-68
2023/07/04 01:26:42;;;;;;;11.82;2.45;;;11.80;99.90;;;;;;4983679;28;20121;-66
2023/07/04 01:29:11;;;;;;;9.80;2.30;;;11.80;99.90;;;;;;4966625;28;20591;-68
2023/07/04 01:31:37;;;;;;;10.65;2.42;;;11.80;99.90;;;;;;4984301;28;20197;-69
2023/07/04 01:34:04;;;;;;;10.80;2.63;;;11.80;99.90;;;;;;4968444;28;20129;-68
2023/07/04 01:36:33;;;;;;;12.98;2.42;;;11.80;99.90;;;;;;4984756;28;20058;-68
2023/07/04 01:38:59;;;;;;;9.63;2.13;;;11.80;99.90;;;;;;4984418;28;20050;-68
2023/07/04 01:41:26;;;;;;;10.77;2.85;;;11.80;99.90;;;;;;4981662;28;20054;-68
2023/07/04 01:44:05;;;;;;;9.93;2.75;;;11.80;99.90;;;;;;4985017;28;20045;-68
2023/07/04 01:46:31;;;;;;;16.17;3.03;;;11.80;99.90;;;;;;4967914;28;20539;-67
2023/07/04 01:48:57;;;;;;;11.00;2.45;;;11.80;99.90;;;;;;4984116;28;20122;-65
2023/07/04 01:51:34;;;;;;;7.60;2.13;;;11.80;99.90;;;;;;4984253;28;20050;-67
2023/07/04 01:54:00;;;;;;;13.52;2.30;;;11.70;99.90;;;;;;4983961;28;20054;-70
2023/07/04 01:56:28;;;;;;;14.43;2.40;;;11.80;99.90;;;;;;4966662;28;20046;-66
2023/07/04 01:58:54;;;;;;;9.35;2.42;;;11.80;99.90;;;;;;4983596;28;20046;-68
2023/07/04 02:01:20;;;;;;;12.13;2.35;;;11.70;99.90;;;;;;4983747;28;20057;-67
2023/07/04 02:03:46;;;;;;;10.88;2.40;;;11.70;99.90;;;;;;5000513;28;20046;-67
2023/07/04 02:06:11;;;;;;;10.75;2.33;;;11.70;99.90;;;;;;4983900;28;20053;-65
2023/07/04 02:08:37;;;;;;;13.80;3.10;;;11.70;99.90;;;;;;4983588;28;20034;-69
2023/07/04 02:11:03;;;;;;;11.30;2.80;;;11.70;99.90;;;;;;4981887;28;20199;-67
2023/07/04 02:13:28;;;;;;;11.95;2.63;;;11.70;99.90;;;;;;4967962;28;20421;-67
2023/07/04 02:15:54;;;;;;;10.25;3.00;;;11.70;99.90;;;;;;4983523;28;20049;-67
2023/07/04 02:18:21;;;;;;;11.15;3.35;;;11.70;99.90;;;;;;4983186;28;20519;-68
2023/07/04 02:20:46;;;;;;;11.07;2.30;;;11.70;99.90;;;;;;4983507;28;20042;-74
2023/07/04 02:23:12;;;;;;;12.50;3.17;;;11.70;99.90;;;;;;4984333;28;20037;-66
2023/07/04 02:25:41;;;;;;;12.68;3.08;;;11.70;99.90;;;;;;4981985;28;20038;-68
2023/07/04 02:28:08;;;;;;;15.20;3.42;;;11.70;99.90;;;;;;4983777;28;20053;-68
2023/07/04 02:30:34;;;;;;;12.05;3.30;;;11.70;99.90;;;;;;4983841;28;20092;-68
2023/07/04 02:33:00;;;;;;;16.35;3.63;;;11.70;99.90;;;;;;4983419;28;20565;-68
2023/07/04 02:35:26;;;;;;;11.60;3.70;;;11.70;99.90;;;;;;4983398;28;20042;-68
2023/07/04 02:37:51;;;;;;;13.93;4.20;;;11.70;99.90;;;;;;4983630;28;20038;-67
2023/07/04 02:40:17;;;;;;;14.52;3.90;;;11.70;99.90;;;;;;4981294;28;20125;-67
2023/07/04 02:42:42;;;;;;;16.00;4.43;;;11.80;99.90;;;;;;4983770;28;20061;-70
2023/07/04 02:45:09;;;;;;;14.48;4.50;;;11.80;99.90;;;;;;4984000;28;20073;-67
2023/07/04 02:47:35;;;;;;;17.38;5.10;;;11.80;99.90;;;;;;4982335;28;20109;-68
2023/07/04 02:50:01;;;;;;;18.50;6.05;;;11.80;99.90;;;;;;4983428;28;20034;-72
2023/07/04 02:52:26;;;;;;;19.17;6.45;;;11.80;99.90;;;;;;4983194;28;20571;-66
2023/07/04 02:54:52;;;;;;;20.88;6.28;;;11.80;99.90;;;;;;4982584;28;20428;-67
2023/07/04 02:57:18;;;;;;;26.40;7.18;;;11.90;99.90;;;;;;4983185;28;20140;-66
2023/07/04 02:59:45;;;;;;;23.67;7.07;;;11.90;99.90;;;;;;4983486;28;20358;-67
2023/07/04 03:02:11;;;;;;;22.33;6.53;;;11.90;99.90;;;;;;4982710;28;20521;-72
2023/07/04 03:04:37;;;;;;;20.13;6.80;;;12.00;99.90;;;;;;4983351;28;20030;-66
2023/07/04 03:07:06;;;;;;;22.98;7.15;;;12.00;99.90;;;;;;4983314;28;20513;-67
2023/07/04 03:09:32;;;;;;;24.42;7.05;;;12.00;99.90;;;;;;4980728;28;20042;-72
2023/07/04 03:11:58;;;;;;;23.02;6.57;;;12.00;99.90;;;;;;4983449;28;20073;-66
2023/07/04 03:14:24;;;;;;;23.00;7.28;;;12.10;99.90;;;;;;4983556;28;20486;-67
2023/07/04 03:16:50;;;;;;;20.98;6.43;;;12.10;99.90;;;;;;4982616;28;20145;-68
2023/07/04 03:19:16;;;;;;;21.75;6.20;;;12.10;99.90;;;;;;4983198;28;20583;-69
2023/07/04 03:21:41;;;;;;;15.45;5.43;;;12.10;99.90;;;;;;4983173;28;20181;-69
2023/07/04 03:24:07;;;;;;;19.05;5.30;;;12.10;99.90;;;;;;4983326;28;20042;-70
2023/07/04 03:26:35;;;;;;;14.55;5.03;;;12.20;99.90;;;;;;4984247;28;20030;-68
2023/07/04 03:29:02;;;;;;;13.45;5.10;;;12.20;99.90;;;;;;4983436;28;20191;-67
2023/07/04 03:31:28;;;;;;;15.85;4.47;;;12.20;99.90;;;;;;4986916;28;20035;-66
2023/07/04 03:33:54;;;;;;;16.33;3.95;;;12.20;99.90;;;;;;4987087;28;20046;-68
2023/07/04 03:36:20;;;;;;;14.68;3.95;;;12.30;99.90;;;;;;4987099;28;20489;-69
2023/07/04 03:38:46;;;;;;;11.55;3.88;;;12.30;99.90;;;;;;4985723;28;20152;-69
2023/07/04 03:41:12;;;;;;;13.30;3.88;;;12.30;99.90;;;;;;4985228;28;20560;-70
2023/07/04 03:43:39;;;;;;;16.58;4.00;;;12.40;99.90;;;;;;4986679;28;20454;-67
2023/07/04 03:46:05;;;;;;;16.27;3.88;;;12.40;99.90;;;;;;4987015;28;20041;-66
2023/07/04 03:48:31;;;;;;;16.00;3.55;;;12.40;99.90;;;;;;4985660;28;20038;-67
2023/07/04 03:50:56;;;;;;;16.17;3.78;;;12.40;99.90;;;;;;4986385;28;20132;-68
2023/07/04 03:53:22;;;;;;;13.32;3.50;;;12.50;99.90;;;;;;4970869;28;20169;-68
2023/07/04 03:55:49;;;;;;;15.85;3.70;;;12.50;99.90;;;;;;4970081;28;20053;-69
2023/07/04 03:58:17;;;;;;;15.27;4.25;;;12.50;99.90;;;;;;4970929;28;20106;-68
2023/07/04 04:00:47;;;;;;;14.20;3.92;;;12.60;99.90;;;;;;4986894;28;20053;-68
2023/07/04 04:03:12;;;;;;;10.63;3.50;;;12.60;99.90;;;;;;4986191;28;20182;-67
2023/07/04 04:05:39;;;;;;;16.13;3.92;;;12.60;99.90;;;;;;4986906;28;20129;-69
2023/07/04 04:08:04;;;;;;;13.80;4.43;;;12.60;99.90;;;;;;4986197;28;20463;-66
2023/07/04 04:10:30;;;;;;;16.80;4.28;;;12.60;99.90;;;;;;4984305;28;20046;-66
2023/07/04 04:12:55;;;;;;;14.57;4.95;;;12.60;99.90;;;;;;4969815;28;20256;-64
2023/07/04 04:15:21;;;;;;;17.30;4.70;;;12.60;99.90;;;;;;4986832;28;20116;-67
2023/07/04 04:17:47;;;;;;;16.67;4.32;;;12.70;99.90;;;;;;4985169;28;20078;-65
2023/07/04 04:20:13;;;;;;;15.05;4.63;;;12.70;99.90;;;;;;4985961;28;20054;-67
2023/07/04 04:22:43;;;;;;;13.10;3.90;;;12.70;99.90;;;;;;4985790;28;20437;-66
2023/07/04 04:25:09;;;;;;;13.75;4.63;;;12.70;99.90;;;;;;4984764;28;20068;-67
2023/07/04 04:27:35;;;;;;;17.70;5.15;;;12.70;99.90;;;;;;4981836;28;20043;-67
2023/07/04 04:30:05;;;;;;;21.20;5.43;;;12.70;99.90;;;;;;4966678;28;20046;-66
2023/07/04 04:32:31;;;;;;;12.60;4.45;;;12.70;99.90;;;;;;4965236;28;20482;-67
2023/07/04 04:34:56;;;;;;;15.20;4.15;;;12.70;99.90;;;;;;4969393;28;20081;-64
2023/07/04 04:37:23;;;;;;;14.52;5.00;;;12.80;99.90;;;;;;4984980;28;20038;-66
2023/07/04 04:39:49;;;;;;;18.02;4.50;;;12.80;99.90;;;;;;4999759;28;20133;-66
2023/07/04 04:42:15;;;;;;;13.75;4.72;;;12.80;99.90;;;;;;4985859;28;20133;-67
2023/07/04 04:44:41;;;;;;;15.30;4.97;;;12.80;99.90;;;;;;4986308;28;20122;-65
2023/07/04 04:47:07;;;;;;;16.77;4.65;;;12.90;99.90;;;;;;4981368;28;20034;-66
2023/07/04 04:49:33;;;;;;;20.95;5.13;;;12.90;99.90;;;;;;5001233;28;20042;-66
2023/07/04 04:51:59;;;;;;;15.50;4.28;;;12.90;99.90;;;;;;4984029;28;20496;-66
2023/07/04 04:54:25;;;;;;;15.48;4.70;;;12.90;99.90;;;;;;4984975;28;20038;-65
2023/07/04 04:56:51;;;;;;;12.68;4.50;;;13.00;99.90;;;;;;4985059;28;20058;-67
2023/07/04 04:59:17;;;;;;;12.98;4.93;;;13.00;99.90;;;;;;4984973;28;20038;-65
2023/07/04 05:01:43;;;;;;;15.23;4.88;;;12.90;99.90;;;;;;4985117;28;20412;-65
2023/07/04 05:04:08;;;;;;;21.63;5.53;;;12.90;99.90;;;;;;5001302;28;20030;-66
2023/07/04 05:06:34;;;;;;;13.45;5.25;;;13.00;99.90;;;;;;4986727;28;20050;-66
2023/07/04 05:09:00;;;;;;;18.27;4.90;;;13.00;99.90;;;;;;4973906;28;20669;-65
2023/07/04 05:11:25;;;;;;;11.85;4.85;;;13.00;99.90;;;;;;4985368;28;20034;-65
2023/07/04 05:13:51;;;;;;;13.25;5.28;;;13.00;99.90;;;;;;4985646;28;20259;-67
2023/07/04 05:16:19;;;;;;;16.50;5.75;;;13.00;99.90;;;;;;4984965;28;20034;-66
2023/07/04 05:18:46;;;;;;;15.90;5.13;;;13.10;99.90;;;;;;4983815;28;20056;-66
2023/07/04 05:21:19;;;;;;;14.32;5.50;;;13.10;99.90;;;;;;4986295;28;20474;-65
2023/07/04 05:23:46;;;;;;;18.58;6.10;;;13.10;99.90;;;;;;4986255;28;20087;-68
2023/07/04 05:26:15;;;;;;;12.40;5.28;;;13.20;99.90;;;;;;5000180;28;20049;-67
2023/07/04 05:28:41;;;;;;;18.45;5.40;;;13.20;99.90;;;;;;4984954;28;20524;-64
2023/07/04 05:31:18;;;;;;;17.13;5.68;;;13.30;99.90;;;;;;4985198;28;20050;-65
2023/07/04 05:33:44;;;;;;;15.75;4.82;;;13.40;99.90;;;;;;4983510;28;20046;-66
2023/07/04 05:36:18;;;;;;;13.32;5.35;;;13.40;99.90;;;;;;4984915;28;20049;-65
2023/07/04 05:38:46;;;;;;;18.02;5.45;;;13.40;99.90;;;;;;4965127;28;20655;-67
2023/07/04 05:41:14;;;;;;;14.80;5.20;;;13.40;99.90;;;;;;4963624;28;20056;-65
2023/07/04 05:43:40;;;;;;;16.02;4.93;;;13.50;99.90;;;;;;4972166;28;20328;-66
2023/07/04 05:46:07;;;;;;;19.15;5.80;;;13.50;99.90;;;;;;4965794;28;20039;-66
2023/07/04 05:48:34;;;;;;;17.02;4.93;;;13.60;99.90;;;;;;4982245;28;20038;-67
2023/07/04 05:51:02;;;;;;;18.52;4.90;;;13.70;99.90;;;;;;4990688;28;20114;-66
2023/07/04 05:53:30;;;;;;;15.20;4.35;;;13.70;99.90;;;;;;4972896;28;20061;-65
2023/07/04 05:56:15;;;;;;;15.07;3.95;;;13.80;99.90;;;;;;4970306;28;20039;-67
2023/07/04 05:58:43;;;;;;;17.67;4.25;;;13.80;99.90;;;;;;4972943;28;21361;-68
2023/07/04 06:01:13;;;;;;;12.50;3.70;;;13.80;99.90;;;;;;4981900;28;20042;-69
2023/07/04 06:03:39;;;;;;;17.88;4.00;;;13.90;99.90;;;;;;4963957;28;20034;-65
2023/07/04 06:06:07;;;;;;;13.32;3.88;;;13.90;99.90;;;;;;4971412;28;20054;-64
2023/07/04 06:08:33;;;;;;;20.17;3.80;;;14.00;99.90;;;;;;4992278;28;20064;-65
2023/07/04 06:11:03;;;;;;;10.27;2.92;;;14.00;99.90;;;;;;4976205;28;20118;-64
2023/07/04 06:13:29;;;;;;;12.00;3.30;;;14.00;99.90;;;;;;4955968;28;20049;-65
2023/07/04 06:15:55;;;;;;;12.65;2.90;;;14.00;99.90;;;;;;4955983;28;20596;-66
2023/07/04 06:18:22;;;;;;;8.73;2.30;;;14.00;99.90;;;;;;4960682;28;20046;-64
2023/07/04 06:20:47;;;;;;;10.85;2.80;;;14.10;99.90;;;;;;4972786;28;20129;-67
2023/07/04 06:23:14;;;;;;;10.65;2.70;;;14.10;99.90;;;;;;4976212;28;20121;-62
2023/07/04 06:25:39;;;;;;;13.80;3.15;;;14.20;99.90;;;;;;4977375;28;20117;-65
2023/07/04 06:28:05;;;;;;;8.88;2.60;;;14.20;99.90;;;;;;4992560;28;20655;-68
2023/07/04 06:30:34;;;;;;;13.48;2.72;;;14.20;99.90;;;;;;4979965;28;20114;-65
2023/07/04 06:33:02;;;;;;;10.60;2.83;;;14.30;99.90;;;;;;4983140;28;20085;-63
2023/07/04 06:35:27;;;;;;;11.20;2.75;;;14.30;99.90;;;;;;4983592;28;20515;-65
2023/07/04 06:37:53;;;;;;;9.45;2.13;;;14.30;99.90;;;;;;4984836;28;20042;-69
2023/07/04 06:40:18;;;;;;;8.90;2.53;;;14.40;99.90;;;;;;4981429;28;20477;-68
2023/07/04 06:42:44;;;;;;;10.88;2.30;;;14.40;99.90;;;;;;4983989;28;20489;-64
2023/07/04 06:45:10;;;;;;;12.00;2.40;;;14.40;99.90;;;;;;4983708;28;20096;-68
2023/07/04 06:47:35;;;;;;;11.50;2.30;;;14.50;99.90;;;;;;4984541;28;20535;-64
2023/07/04 06:50:01;;;;;;;8.88;2.17;;;14.50;99.90;;;;;;4985231;28;20039;-70
2023/07/04 06:52:26;;;;;;;9.10;2.05;;;14.60;99.90;;;;;;4983686;28;20050;-67
2023/07/04 06:54:52;;;;;;;11.55;1.98;;;14.60;99.90;;;;;;4982055;28;20052;-67
2023/07/04 06:57:19;;;;;;;8.38;2.05;;;14.70;99.90;;;;;;4983768;28;20053;-68
2023/07/04 06:59:45;;;;;;;12.05;2.08;;;14.70;99.90;;;;;;5000197;28;20055;-68
2023/07/04 07:02:14;;;;;;;10.00;2.28;;;14.80;99.90;;;;;;4984171;28;20208;-66
2023/07/04 07:04:41;;;;;;;12.07;2.08;;;14.80;99.90;;;;;;4983671;28;20501;-65
2023/07/04 07:07:09;;;;;;;8.95;2.05;;;14.80;99.90;;;;;;4983846;28;20379;-67
2023/07/04 07:09:42;;;;;;;9.25;2.03;;;14.80;99.90;;;;;;4997827;28;20074;-67
2023/07/04 07:12:10;;;;;;;8.95;1.88;;;14.80;99.90;;;;;;4983473;28;20168;-66
2023/07/04 07:14:38;;;;;;;7.20;1.60;;;14.90;99.90;;;;;;4983903;28;20061;-67
2023/07/04 07:17:05;;;;;;;7.45;1.80;;;15.00;99.90;;;;;;4982216;28;20038;-64
2023/07/04 07:19:31;;;;;;;7.82;1.98;;;15.00;99.90;;;;;;4983489;28;20315;-68
2023/07/04 07:22:01;;;;;;;7.15;2.50;;;15.10;99.90;;;;;;4983858;28;20042;-70
2023/07/04 07:24:30;;;;;;;13.52;2.28;;;15.10;99.90;;;;;;4978238;28;20034;-68
2023/07/04 07:26:57;;;;;;;9.48;2.03;;;15.10;99.90;;;;;;4964082;28;20065;-68
2023/07/04 07:29:23;;;;;;;7.47;1.80;;;15.20;99.90;;;;;;4964222;28;20039;-68
2023/07/04 07:31:50;;;;;;;11.20;2.33;;;15.20;99.90;;;;;;4950448;28;20057;-69
2023/07/04 07:34:17;;;;;;;12.00;2.10;;;15.20;99.90;;;;;;4983383;28;20452;-67
2023/07/04 07:36:44;;;;;;;9.13;1.90;;;15.30;99.90;;;;;;4999933;28;20205;-68
2023/07/04 07:39:14;;;;;;;11.23;1.73;;;15.30;99.90;;;;;;4981292;28;20046;-70
2023/07/04 07:41:46;;;;;;;8.13;1.90;;;15.30;99.90;;;;;;4983816;28;20054;-68
2023/07/04 07:44:16;;;;;;;9.98;1.98;;;15.40;99.90;;;;;;4983648;28;20038;-67
2023/07/04 07:46:42;;;;;;;10.73;2.10;;;15.40;99.90;;;;;;4982854;28;20065;-66
2023/07/04 07:49:08;;;;;;;13.68;2.03;;;15.50;99.90;;;;;;4983960;28;20082;-67
2023/07/04 07:51:34;;;;;;;8.18;1.90;;;15.50;99.90;;;;;;4983492;28;20069;-66
2023/07/04 07:54:01;;;;;;;9.45;2.00;;;15.50;99.90;;;;;;4999831;28;20568;-67
2023/07/04 07:56:32;;;;;;;9.98;2.03;;;15.60;99.90;;;;;;4981097;28;20057;-67
2023/07/04 07:58:58;;;;;;;10.15;2.28;;;15.60;99.90;;;;;;4984965;28;20052;-65
2023/07/04 08:01:28;;;;;;;8.82;1.88;;;15.60;99.90;;;;;;4984829;28;20038;-67
2023/07/04 08:03:55;;;;;;;9.00;1.90;;;15.60;99.90;;;;;;4966917;28;20042;-72
2023/07/04 08:06:39;;;;;;;9.82;1.83;;;15.70;99.90;;;;;;4982088;28;20038;-68
2023/07/04 08:09:07;;;;;;;8.95;1.60;;;15.70;99.90;;;;;;4982532;28;20761;-65
2023/07/04 08:11:34;;;;;;;7.78;1.70;;;15.70;99.90;;;;;;4982494;28;20046;-64
2023/07/04 08:14:00;;;;;;;9.18;1.60;;;15.70;99.90;;;;;;4986226;28;20400;-70
2023/07/04 08:16:31;;;;;;;7.32;1.70;;;15.80;99.90;;;;;;4986609;28;20073;-65
2023/07/04 08:18:58;;;;;;;8.40;1.52;;;15.80;99.90;;;;;;4986192;28;20045;-67
2023/07/04 08:21:26;;;;;;;7.88;1.52;;;15.80;99.90;;;;;;5002311;28;20049;-66
2023/07/04 08:23:51;;;;;;;11.10;1.63;;;15.80;99.90;;;;;;4986509;28;20042;-68
2023/07/04 08:26:20;;;;;;;8.77;1.70;;;15.90;99.90;;;;;;4984899;28;20043;-67
2023/07/04 08:28:46;;;;;;;8.18;1.88;;;15.90;99.90;;;;;;4985998;28;20137;-63
2023/07/04 08:31:12;;;;;;;9.02;2.00;;;16.00;99.90;;;;;;4986704;28;20626;-70
2023/07/04 08:33:38;;;;;;;7.68;1.48;;;16.00;99.90;;;;;;4986034;28;20112;-68
2023/07/04 08:36:06;;;;;;;8.38;1.60;;;16.00;99.90;;;;;;4969773;28;20508;-66
2023/07/04 08:38:32;;;;;;;7.57;2.33;;;16.00;99.90;;;;;;4988699;28;21371;-70
2023/07/04 08:40:58;;;;;;;6.95;1.63;;;16.00;99.90;;;;;;4987689;28;20045;-64
2023/07/04 08:43:46;;;;;;;9.98;1.95;;;16.10;99.90;;;;;;4989754;28;20037;-64
2023/07/04 08:46:14;;;;;;;8.60;2.17;;;16.10;99.90;;;;;;4989172;28;20266;-66
2023/07/04 08:48:41;;;;;;;8.95;1.58;;;16.10;99.90;;;;;;4988446;28;20591;-68
2023/07/04 08:51:10;;;;;;;8.73;2.00;;;16.10;99.90;;;;;;4989334;28;20527;-68
2023/07/04 08:53:38;;;;;;;6.68;1.33;;;16.20;99.90;;;;;;4989450;28;20038;-68
2023/07/04 08:56:12;;;;;;;10.20;2.10;;;16.20;99.90;;;;;;4987197;28;20604;-65
2023/07/04 08:59:21;;;;;;;10.20;1.83;;;16.30;99.90;;;;;;4989509;28;20038;-69
2023/07/04 09:02:29;;;;;;;9.95;1.90;;;16.30;99.90;;;;;;5005893;28;20184;-65
2023/07/04 09:05:04;;;;;;;10.32;2.05;;;16.40;99.90;;;;;;5006652;28;20117;-66
2023/07/04 09:07:53;;;;;;;7.38;2.15;;;16.40;99.90;;;;;;5004750;28;20057;-68
2023/07/04 09:10:32;;;;;;;9.65;2.15;;;16.50;99.90;;;;;;4986882;28;20084;-70
2023/07/04 09:12:59;;;;;;;8.75;1.92;;;16.50;99.90;;;;;;5006137;28;20125;-67
2023/07/04 09:15:35;;;;;;;9.77;2.00;;;16.50;99.90;;;;;;4986452;28;20226;-69
2023/07/04 09:18:18;;;;;;;7.38;1.90;;;16.60;99.90;;;;;;5001038;28;20050;-66
2023/07/04 09:20:49;;;;;;;13.02;2.70;;;16.60;99.90;;;;;;4969329;28;20082;-69
2023/07/04 09:23:22;;;;;;;7.50;2.08;;;16.70;99.90;;;;;;4969086;28;20074;-66
2023/07/04 09:25:49;;;;;;;11.25;2.08;;;16.80;99.90;;;;;;4980609;28;20042;-70
2023/07/04 09:28:14;;;;;;;10.90;2.20;;;16.80;99.90;;;;;;4988403;28;20115;-68
2023/07/04 09:30:40;;;;;;;13.30;2.47;;;16.90;99.90;;;;;;5004527;28;20049;-67
2023/07/04 09:33:06;;;;;;;12.13;2.63;;;17.00;99.90;;;;;;4988257;28;20046;-70
2023/07/04 09:35:32;;;;;;;11.98;3.03;;;17.20;99.90;;;;;;4987952;28;20041;-68
2023/07/04 09:38:00;;;;;;;15.88;2.70;;;17.20;99.90;;;;;;4971911;28;20092;-66
2023/07/04 09:40:46;;;;;;;9.95;2.03;;;17.30;99.90;;;;;;4988017;28;20412;-67
2023/07/04 09:43:33;;;;;;;14.18;2.83;;;17.40;99.90;;;;;;4987915;28;20060;-67
2023/07/04 09:46:26;;;;;;;12.38;2.47;;;17.50;99.90;;;;;;4988019;28;20037;-64
2023/07/04 09:48:54;;;;;;;14.32;2.60;;;17.60;99.90;;;;;;4971577;28;20038;-65
2023/07/04 09:51:25;;;;;;;13.85;2.53;;;17.70;99.90;;;;;;5005591;28;20042;-69
2023/07/04 09:54:09;;;;;;;11.60;2.17;;;17.80;99.90;;;;;;4988194;28;20126;-65
2023/07/04 09:56:36;;;;;;;10.15;2.00;;;17.90;99.30;;;;;;4987196;28;20049;-67
2023/07/04 09:59:13;;;;;;;12.32;2.20;;;18.00;99.90;;;;;;4988194;28;20049;-66
2023/07/04 10:02:10;;;;;;;13.02;2.75;;;18.10;99.30;;;;;;4970826;28;20042;-68
2023/07/04 10:04:38;;;;;;;9.70;2.35;;;18.20;98.70;;;;;;4968088;28;20034;-66
2023/07/04 10:07:12;;;;;;;9.68;2.00;;;18.30;99.90;;;;;;4985911;28;20095;-66
2023/07/04 10:10:04;;;;;;;87.15;73.93;;;18.30;98.50;;;;;;4968734;28;20121;-65
2023/07/04 10:12:32;;;;;;;5.88;1.60;;;18.20;99.20;;;;;;5005143;28;20723;-68
2023/07/04 10:14:59;;;;;;;7.13;1.60;;;18.20;98.70;;;;;;4987928;28;20081;-68
2023/07/04 10:17:28;;;;;;;9.13;1.88;;;18.30;97.80;;;;;;5004696;28;20504;-68
2023/07/04 10:20:08;;;;;;;11.23;2.30;;;18.10;97.70;;;;;;4987465;28;20052;-67
2023/07/04 10:22:38;;;;;;;11.40;3.00;;;18.00;97.90;;;;;;4987397;28;20053;-68
2023/07/04 10:25:13;;;;;;;12.13;2.13;;;18.00;98.80;;;;;;4986231;28;20033;-64
2023/07/04 10:27:41;;;;;;;9.82;2.28;;;18.00;98.80;;;;;;4986903;28;20088;-68
2023/07/04 10:30:11;;;;;;;9.90;2.10;;;18.00;98.90;;;;;;5005651;28;20427;-69
2023/07/04 10:32:52;;;;;;;10.18;2.17;;;18.00;98.10;;;;;;4970979;28;20157;-68
2023/07/04 10:35:22;;;;;;;10.80;2.25;;;18.00;97.90;;;;;;5004383;28;20072;-64
2023/07/04 10:37:55;;;;;;;11.32;2.03;;;18.00;98.90;;;;;;4986747;28;20050;-70
2023/07/04 10:40:23;;;;;;;12.02;2.63;;;18.00;98.10;;;;;;4985329;28;20073;-64
2023/07/04 10:43:10;;;;;;;11.52;2.10;;;18.00;98.70;;;;;;4987245;28;20481;-67
2023/07/04 10:45:38;;;;;;;13.02;2.90;;;18.20;99.10;;;;;;4957083;28;20057;-66
2023/07/04 10:48:10;;;;;;;10.02;2.42;;;18.40;99.60;;;;;;4995905;28;20038;-66
2023/07/04 10:50:56;;;;;;;8.70;1.63;;;18.60;98.70;;;;;;5004580;28;20069;-67
2023/07/04 10:53:22;;;;;;;8.73;1.83;;;18.80;96.30;;;;;;5004834;28;20050;-65
2023/07/04 10:56:09;;;;;;;10.88;2.05;;;18.80;95.80;;;;;;4985072;28;20128;-67
2023/07/04 10:58:41;;;;;;;10.57;1.90;;;18.90;95.20;;;;;;5005199;28;20091;-63
2023/07/04 11:01:13;;;;;;;7.97;2.08;;;18.70;95.50;;;;;;5004959;28;20511;-64
2023/07/04 11:03:46;;;;;;;9.57;2.20;;;18.60;95.80;;;;;;4971592;28;20061;-66
2023/07/04 11:06:34;;;;;;;9.40;1.65;;;18.50;96.20;;;;;;4951252;28;20129;-68
2023/07/04 11:09:00;;;;;;;9.07;2.00;;;18.60;95.40;;;;;;4986923;28;20096;-68
2023/07/04 11:11:29;;;;;;;8.60;2.00;;;18.80;96.10;;;;;;5002841;28;20037;-65
2023/07/04 11:14:00;;;;;;;13.13;2.40;;;18.80;96.10;;;;;;4987301;28;20765;-68
2023/07/04 11:16:31;;;;;;;11.85;2.15;;;18.80;96.40;;;;;;4986817;28;20085;-67
2023/07/04 11:19:20;;;;;;;11.48;2.67;;;18.80;96.50;;;;;;4986064;28;20700;-69
2023/07/04 11:22:02;;;;;;;11.60;2.10;;;18.80;96.40;;;;;;5003345;28;20041;-69
2023/07/04 11:24:42;;;;;;;11.63;2.70;;;18.90;95.50;;;;;;5001541;28;20159;-65
2023/07/04 11:27:17;;;;;;;9.85;2.10;;;18.90;96.10;;;;;;4986265;28;20392;-66
2023/07/04 11:29:54;;;;;;;13.38;2.40;;;19.10;96.60;;;;;;5004342;28;20437;-72
2023/07/04 11:32:25;;;;;;;12.70;2.08;;;19.20;96.10;;;;;;4982066;28;20038;-69
2023/07/04 11:35:09;;;;;;;10.50;2.17;;;19.20;96.40;;;;;;4966916;28;20050;-69
2023/07/04 11:37:52;;;;;;;9.82;2.58;;;19.30;96.30;;;;;;4951477;28;20042;-68
2023/07/04 11:40:23;;;;;;;14.07;2.45;;;19.30;96.20;;;;;;4965460;28;20090;-67
2023/07/04 11:42:55;;;;;;;13.05;2.45;;;19.50;96.10;;;;;;4967743;28;20082;-66
2023/07/04 11:45:25;;;;;;;12.00;2.60;;;19.60;96.30;;;;;;4957341;28;20147;-66
2023/07/04 11:47:59;;;;;;;10.10;2.17;;;19.70;94.50;;;;;;5004649;28;20095;-66
2023/07/04 11:50:39;;;;;;;11.85;2.05;;;19.70;93.00;;;;;;4990303;28;20382;-69
2023/07/04 11:53:15;;;;;;;12.32;2.28;;;19.80;91.60;;;;;;5008067;28;20394;-66
2023/07/04 11:55:41;;;;;;;12.10;2.38;;;19.90;92.30;;;;;;5005902;28;20053;-65
2023/07/04 11:58:07;;;;;;;10.65;2.33;;;20.00;92.00;;;;;;5006566;28;20053;-64
2023/07/04 12:00:35;;;;;;;10.68;2.60;;;20.10;91.00;;;;;;4990589;28;20045;-69
2023/07/04 12:03:16;;;;;;;11.55;2.45;;;20.10;89.70;;;;;;5007051;28;20068;-67
2023/07/04 12:05:52;;;;;;;8.65;2.28;;;20.20;91.10;;;;;;4989495;28;20104;-66
2023/07/04 12:08:35;;;;;;;10.32;2.45;;;20.20;87.60;;;;;;5007008;28;20122;-68
2023/07/04 12:11:08;;;;;;;10.15;2.05;;;20.10;87.90;;;;;;4988180;28;20121;-69
2023/07/04 12:13:37;;;;;;;10.88;2.58;;;19.90;90.50;;;;;;4990098;28;20033;-65
2023/07/04 12:16:04;;;;;;;10.57;2.17;;;19.60;90.60;;;;;;5000943;28;20041;-64
2023/07/04 12:18:40;;;;;;;9.90;2.28;;;19.40;91.40;;;;;;4989211;28;20045;-67
2023/07/04 12:21:08;;;;;;;10.05;2.53;;;19.30;92.10;;;;;;5007402;28;20052;-64
2023/07/04 12:23:35;;;;;;;11.77;2.38;;;19.30;92.20;;;;;;5005630;28;20042;-64
2023/07/04 12:26:01;;;;;;;8.35;2.28;;;19.40;92.60;;;;;;5005751;28;20088;-67
2023/07/04 12:28:29;;;;;;;11.93;2.50;;;19.50;93.20;;;;;;5006286;28;20084;-69
2023/07/04 12:31:00;;;;;;;8.18;1.80;;;19.40;92.90;;;;;;5007258;28;20527;-69
2023/07/04 12:33:34;;;;;;;12.40;2.22;;;19.40;93.00;;;;;;4989260;28;20653;-67
2023/07/04 12:36:12;;;;;;;12.45;2.55;;;19.40;92.80;;;;;;4982971;28;20497;-64
2023/07/04 12:38:54;;;;;;;14.75;2.10;;;19.40;92.80;;;;;;4984743;28;20070;-66
2023/07/04 12:41:23;;;;;;;13.00;2.92;;;19.30;93.10;;;;;;4985885;28;20547;-67
2023/07/04 12:43:56;;;;;;;9.13;2.00;;;19.20;93.30;;;;;;5006121;28;20044;-64
2023/07/04 12:46:23;;;;;;;9.52;2.40;;;19.00;93.30;;;;;;5000857;28;20038;-66
2023/07/04 12:48:49;;;;;;;12.75;1.88;;;19.00;92.40;;;;;;4987707;28;20473;-64
2023/07/04 12:51:18;;;;;;;12.68;2.65;;;19.00;92.20;;;;;;5004930;28;20030;-66
2023/07/04 12:53:45;;;;;;;9.70;2.05;;;19.10;92.40;;;;;;5007069;28;20116;-65